sensor_id;sensor_type;location;lat;lon;timestamp;pressure;altitude;pressure_sealevel;temperature;humidity
43420;BME280;29017;51.514;-0.178;2022-09-03T00:01:00;100430.72;;;21.02;67.91
43420;BME280;29017;51.514;-0.178;2022-09-03T00:03:38;100428.47;;;20.99;67.75
43420;BME280;29017;51.514;-0.178;2022-09-03T00:06:16;100428.72;;;20.98;67.94
43420;BME280;29017;51.514;-0.178;2022-09-03T00:09:22;100434.31;;;20.96;68.25
43420;BME280;29017;51.514;-0.178;2022-09-03T00:12:12;100425.69;;;20.94;68.46
43420;BME280;29017;51.514;-0.178;2022-09-03T00:14:49;100421.03;;;20.89;68.96
43420;BME280;29017;51.514;-0.178;2022-09-03T00:17:22;100414.50;;;20.85;69.25
43420;BME280;29017;51.514;-0.178;2022-09-03T00:20:23;100410.66;;;20.81;69.95
43420;BME280;29017;51.514;-0.178;2022-09-03T00:22:51;100406.97;;;20.82;70.89
43420;BME280;29017;51.514;-0.178;2022-09-03T00:25:28;100405.53;;;20.80;70.29
43420;BME280;29017;51.514;-0.178;2022-09-03T00:28:01;100401.22;;;20.79;70.88
43420;BME280;29017;51.514;-0.178;2022-09-03T00:30:31;100400.88;;;20.75;70.65
43420;BME280;29017;51.514;-0.178;2022-09-03T00:33:05;100394.94;;;20.73;70.93
43420;BME280;29017;51.514;-0.178;2022-09-03T00:35:46;100388.78;;;20.73;71.24
43420;BME280;29017;51.514;-0.178;2022-09-03T00:38:15;100387.97;;;20.72;71.76
43420;BME280;29017;51.514;-0.178;2022-09-03T00:40:57;100395.19;;;20.72;71.45
43420;BME280;29017;51.514;-0.178;2022-09-03T00:43:32;100394.59;;;20.70;72.05
43420;BME280;29017;51.514;-0.178;2022-09-03T00:46:06;100392.38;;;20.67;72.56
43420;BME280;29017;51.514;-0.178;2022-09-03T00:48:52;100381.91;;;20.65;72.58
43420;BME280;29017;51.514;-0.178;2022-09-03T00:51:34;100385.84;;;20.63;72.40
43420;BME280;29017;51.514;-0.178;2022-09-03T00:54:26;100387.94;;;20.61;72.91
43420;BME280;29017;51.514;-0.178;2022-09-03T01:02:54;100384.34;;;20.55;72.51
43420;BME280;29017;51.514;-0.178;2022-09-03T01:18:52;100382.22;;;20.45;73.95
43420;BME280;29017;51.514;-0.178;2022-09-03T01:27:39;100380.66;;;20.38;74.45
43420;BME280;29017;51.514;-0.178;2022-09-03T01:30:14;100382.53;;;20.37;75.07
43420;BME280;29017;51.514;-0.178;2022-09-03T01:33:46;100371.63;;;20.39;75.02
43420;BME280;29017;51.514;-0.178;2022-09-03T01:38:59;100365.44;;;20.38;74.91
43420;BME280;29017;51.514;-0.178;2022-09-03T01:47:40;100365.66;;;20.37;75.52
43420;BME280;29017;51.514;-0.178;2022-09-03T02:01:22;100370.22;;;20.36;76.08
43420;BME280;29017;51.514;-0.178;2022-09-03T02:03:52;100372.31;;;20.34;76.14
43420;BME280;29017;51.514;-0.178;2022-09-03T02:06:28;100375.78;;;20.35;76.65
43420;BME280;29017;51.514;-0.178;2022-09-03T02:08:57;100372.53;;;20.33;77.25
43420;BME280;29017;51.514;-0.178;2022-09-03T02:11:24;100365.53;;;20.32;76.63
43420;BME280;29017;51.514;-0.178;2022-09-03T02:13:55;100371.94;;;20.31;77.20
43420;BME280;29017;51.514;-0.178;2022-09-03T02:16:30;100373.56;;;20.32;77.49
43420;BME280;29017;51.514;-0.178;2022-09-03T02:19:02;100372.53;;;20.33;77.62
43420;BME280;29017;51.514;-0.178;2022-09-03T02:21:34;100369.63;;;20.34;77.58
43420;BME280;29017;51.514;-0.178;2022-09-03T02:24:03;100374.16;;;20.34;77.48
43420;BME280;29017;51.514;-0.178;2022-09-03T02:26:30;100373.34;;;20.33;77.78
43420;BME280;29017;51.514;-0.178;2022-09-03T02:28:58;100384.84;;;20.34;77.63
43420;BME280;29017;51.514;-0.178;2022-09-03T02:31:27;100381.13;;;20.35;78.22
43420;BME280;29017;51.514;-0.178;2022-09-03T02:33:55;100383.81;;;20.35;78.50
43420;BME280;29017;51.514;-0.178;2022-09-03T02:36:38;100392.88;;;20.34;78.48
43420;BME280;29017;51.514;-0.178;2022-09-03T02:39:06;100394.50;;;20.35;78.37
43420;BME280;29017;51.514;-0.178;2022-09-03T02:41:33;100395.31;;;20.35;78.10
43420;BME280;29017;51.514;-0.178;2022-09-03T02:44:13;100395.31;;;20.35;77.96
43420;BME280;29017;51.514;-0.178;2022-09-03T02:46:52;100401.09;;;20.32;78.26
43420;BME280;29017;51.514;-0.178;2022-09-03T02:49:21;100394.94;;;20.32;78.59
43420;BME280;29017;51.514;-0.178;2022-09-03T02:51:48;100407.69;;;20.30;79.07
43420;BME280;29017;51.514;-0.178;2022-09-03T02:54:15;100399.69;;;20.30;79.45
43420;BME280;29017;51.514;-0.178;2022-09-03T02:56:46;100409.38;;;20.31;79.37
43420;BME280;29017;51.514;-0.178;2022-09-03T02:59:15;100405.25;;;20.28;79.34
43420;BME280;29017;51.514;-0.178;2022-09-03T03:01:43;100398.25;;;20.27;79.37
43420;BME280;29017;51.514;-0.178;2022-09-03T03:04:12;100394.56;;;20.28;79.63
43420;BME280;29017;51.514;-0.178;2022-09-03T03:06:39;100392.47;;;20.30;80.01
43420;BME280;29017;51.514;-0.178;2022-09-03T03:09:06;100396.81;;;20.31;80.10
43420;BME280;29017;51.514;-0.178;2022-09-03T03:11:34;100392.25;;;20.32;80.52
43420;BME280;29017;51.514;-0.178;2022-09-03T03:14:02;100394.94;;;20.32;80.24
43420;BME280;29017;51.514;-0.178;2022-09-03T03:16:29;100394.72;;;20.33;80.06
43420;BME280;29017;51.514;-0.178;2022-09-03T03:18:56;100390.84;;;20.29;80.05
43420;BME280;29017;51.514;-0.178;2022-09-03T03:21:23;100389.44;;;20.27;80.02
43420;BME280;29017;51.514;-0.178;2022-09-03T03:23:50;100385.97;;;20.26;80.17
43420;BME280;29017;51.514;-0.178;2022-09-03T03:26:19;100372.00;;;20.24;80.11
43420;BME280;29017;51.514;-0.178;2022-09-03T03:28:47;100382.69;;;20.24;80.77
43420;BME280;29017;51.514;-0.178;2022-09-03T03:31:19;100386.41;;;20.23;80.84
43420;BME280;29017;51.514;-0.178;2022-09-03T03:33:57;100366.88;;;20.23;80.75
43420;BME280;29017;51.514;-0.178;2022-09-03T03:36:27;100368.72;;;20.22;80.94
43420;BME280;29017;51.514;-0.178;2022-09-03T03:38:56;100360.97;;;20.21;80.46
43420;BME280;29017;51.514;-0.178;2022-09-03T03:41:32;100366.31;;;20.21;80.66
43420;BME280;29017;51.514;-0.178;2022-09-03T03:44:02;100364.06;;;20.18;80.44
43420;BME280;29017;51.514;-0.178;2022-09-03T03:46:49;100366.75;;;20.18;81.57
43420;BME280;29017;51.514;-0.178;2022-09-03T03:49:16;100364.75;;;20.13;81.39
43420;BME280;29017;51.514;-0.178;2022-09-03T03:51:46;100369.28;;;20.13;81.61
43420;BME280;29017;51.514;-0.178;2022-09-03T03:54:13;100371.94;;;20.13;81.29
43420;BME280;29017;51.514;-0.178;2022-09-03T03:56:43;100376.72;;;20.11;81.67
43420;BME280;29017;51.514;-0.178;2022-09-03T03:59:16;100373.44;;;20.08;81.57
43420;BME280;29017;51.514;-0.178;2022-09-03T04:01:43;100363.81;;;20.07;81.59
43420;BME280;29017;51.514;-0.178;2022-09-03T04:04:09;100356.59;;;20.08;82.38
43420;BME280;29017;51.514;-0.178;2022-09-03T04:06:36;100346.53;;;20.10;82.12
43420;BME280;29017;51.514;-0.178;2022-09-03T04:09:03;100363.38;;;20.11;81.86
43420;BME280;29017;51.514;-0.178;2022-09-03T04:11:30;100357.22;;;20.10;82.00
43420;BME280;29017;51.514;-0.178;2022-09-03T04:13:57;100364.19;;;20.11;81.90
43420;BME280;29017;51.514;-0.178;2022-09-03T04:16:27;100362.31;;;20.12;81.90
43420;BME280;29017;51.514;-0.178;2022-09-03T04:18:55;100365.78;;;20.12;82.02
43420;BME280;29017;51.514;-0.178;2022-09-03T04:21:26;100354.28;;;20.12;81.72
43420;BME280;29017;51.514;-0.178;2022-09-03T04:23:54;100368.47;;;20.12;82.45
43420;BME280;29017;51.514;-0.178;2022-09-03T04:26:24;100356.75;;;20.13;82.22
43420;BME280;29017;51.514;-0.178;2022-09-03T04:28:51;100354.41;;;20.17;82.30
43420;BME280;29017;51.514;-0.178;2022-09-03T04:31:19;100354.19;;;20.18;81.91
43420;BME280;29017;51.514;-0.178;2022-09-03T04:33:46;100349.06;;;20.17;82.32
43420;BME280;29017;51.514;-0.178;2022-09-03T04:36:15;100347.47;;;20.16;82.04
43420;BME280;29017;51.514;-0.178;2022-09-03T04:38:44;100346.88;;;20.14;82.49
43420;BME280;29017;51.514;-0.178;2022-09-03T04:41:21;100347.47;;;20.16;83.58
43420;BME280;29017;51.514;-0.178;2022-09-03T04:43:51;100346.88;;;20.14;82.80
43420;BME280;29017;51.514;-0.178;2022-09-03T04:46:19;100339.66;;;20.14;82.97
43420;BME280;29017;51.514;-0.178;2022-09-03T04:48:48;100346.88;;;20.14;82.98
43420;BME280;29017;51.514;-0.178;2022-09-03T04:51:23;100362.09;;;20.13;82.66
43420;BME280;29017;51.514;-0.178;2022-09-03T04:53:55;100358.38;;;20.14;82.81
43420;BME280;29017;51.514;-0.178;2022-09-03T04:56:25;100354.88;;;20.14;83.18
43420;BME280;29017;51.514;-0.178;2022-09-03T04:58:55;100354.06;;;20.13;83.53
43420;BME280;29017;51.514;-0.178;2022-09-03T05:01:24;100353.03;;;20.14;83.41
43420;BME280;29017;51.514;-0.178;2022-09-03T05:03:54;100355.69;;;20.14;83.06
43420;BME280;29017;51.514;-0.178;2022-09-03T05:06:21;100356.53;;;20.15;83.05
43420;BME280;29017;51.514;-0.178;2022-09-03T05:08:49;100360.69;;;20.11;82.86
43420;BME280;29017;51.514;-0.178;2022-09-03T05:11:16;100365.44;;;20.08;83.53
43420;BME280;29017;51.514;-0.178;2022-09-03T05:13:46;100360.31;;;20.07;83.91
43420;BME280;29017;51.514;-0.178;2022-09-03T05:16:15;100362.41;;;20.05;84.00
43420;BME280;29017;51.514;-0.178;2022-09-03T05:18:43;100363.44;;;20.04;84.03
43420;BME280;29017;51.514;-0.178;2022-09-03T05:21:12;100359.34;;;20.01;84.20
43420;BME280;29017;51.514;-0.178;2022-09-03T05:23:42;100356.13;;;19.99;84.14
43420;BME280;29017;51.514;-0.178;2022-09-03T05:26:13;100359.00;;;19.98;84.01
43420;BME280;29017;51.514;-0.178;2022-09-03T05:28:41;100359.22;;;19.96;83.83
43420;BME280;29017;51.514;-0.178;2022-09-03T05:31:10;100360.72;;;19.92;84.32
43420;BME280;29017;51.514;-0.178;2022-09-03T05:33:43;100356.41;;;19.91;84.23
43420;BME280;29017;51.514;-0.178;2022-09-03T05:36:12;100357.22;;;19.92;85.27
43420;BME280;29017;51.514;-0.178;2022-09-03T05:38:39;100356.06;;;19.88;84.82
43420;BME280;29017;51.514;-0.178;2022-09-03T05:41:09;100354.88;;;19.84;85.21
43420;BME280;29017;51.514;-0.178;2022-09-03T05:43:36;100351.38;;;19.83;85.26
43420;BME280;29017;51.514;-0.178;2022-09-03T05:46:12;100360.22;;;19.84;85.38
43420;BME280;29017;51.514;-0.178;2022-09-03T05:48:40;100365.78;;;19.82;85.37
43420;BME280;29017;51.514;-0.178;2022-09-03T05:51:12;100352.44;;;19.82;85.97
43420;BME280;29017;51.514;-0.178;2022-09-03T05:53:44;100361.03;;;19.84;85.77
43420;BME280;29017;51.514;-0.178;2022-09-03T05:56:13;100353.84;;;19.85;85.62
43420;BME280;29017;51.514;-0.178;2022-09-03T05:58:45;100370.44;;;19.87;85.72
43420;BME280;29017;51.514;-0.178;2022-09-03T06:01:17;100362.44;;;19.87;85.68
43420;BME280;29017;51.514;-0.178;2022-09-03T06:03:47;100360.56;;;19.87;85.62
43420;BME280;29017;51.514;-0.178;2022-09-03T06:06:14;100362.22;;;19.88;85.60
43420;BME280;29017;51.514;-0.178;2022-09-03T06:08:41;100360.34;;;19.89;85.80
43420;BME280;29017;51.514;-0.178;2022-09-03T06:11:10;100368.97;;;19.91;86.36
43420;BME280;29017;51.514;-0.178;2022-09-03T06:13:37;100368.72;;;19.92;86.85
43420;BME280;29017;51.514;-0.178;2022-09-03T06:16:06;100369.34;;;19.94;86.51
43420;BME280;29017;51.514;-0.178;2022-09-03T06:18:33;100380.84;;;19.95;86.13
43420;BME280;29017;51.514;-0.178;2022-09-03T06:21:04;100379.81;;;19.96;86.52
43420;BME280;29017;51.514;-0.178;2022-09-03T06:23:33;100378.97;;;19.95;86.52
43420;BME280;29017;51.514;-0.178;2022-09-03T06:26:11;100380.59;;;19.96;86.95
43420;BME280;29017;51.514;-0.178;2022-09-03T06:28:40;100382.22;;;19.97;86.91
43420;BME280;29017;51.514;-0.178;2022-09-03T06:31:14;100376.44;;;20.00;87.90
43420;BME280;29017;51.514;-0.178;2022-09-03T06:33:41;100379.13;;;20.00;87.21
43420;BME280;29017;51.514;-0.178;2022-09-03T06:36:10;100378.06;;;20.01;86.92
43420;BME280;29017;51.514;-0.178;2022-09-03T06:38:39;100377.84;;;20.03;86.81
43420;BME280;29017;51.514;-0.178;2022-09-03T06:41:17;100374.94;;;20.04;86.78
43420;BME280;29017;51.514;-0.178;2022-09-03T06:43:47;100384.13;;;20.08;86.70
43420;BME280;29017;51.514;-0.178;2022-09-03T06:46:17;100387.41;;;20.11;86.93
43420;BME280;29017;51.514;-0.178;2022-09-03T06:48:44;100390.66;;;20.13;86.50
43420;BME280;29017;51.514;-0.178;2022-09-03T06:51:17;100381.59;;;20.14;86.89
43420;BME280;29017;51.514;-0.178;2022-09-03T06:53:50;100385.69;;;20.16;86.94
43420;BME280;29017;51.514;-0.178;2022-09-03T06:56:19;100393.25;;;20.19;86.14
43420;BME280;29017;51.514;-0.178;2022-09-03T06:59:14;100388.25;;;20.23;86.32
43420;BME280;29017;51.514;-0.178;2022-09-03T07:01:57;100391.31;;;20.26;85.99
43420;BME280;29017;51.514;-0.178;2022-09-03T07:04:26;100399.09;;;20.28;85.75
43420;BME280;29017;51.514;-0.178;2022-09-03T07:06:54;100400.50;;;20.30;86.17
43420;BME280;29017;51.514;-0.178;2022-09-03T07:09:21;100405.41;;;20.33;86.16
43420;BME280;29017;51.514;-0.178;2022-09-03T07:11:48;100398.00;;;20.35;85.92
43420;BME280;29017;51.514;-0.178;2022-09-03T07:14:18;100391.81;;;20.35;86.31
43420;BME280;29017;51.514;-0.178;2022-09-03T07:16:47;100388.13;;;20.36;86.17
43420;BME280;29017;51.514;-0.178;2022-09-03T07:19:15;100394.28;;;20.36;86.25
43420;BME280;29017;51.514;-0.178;2022-09-03T07:21:42;100397.53;;;20.38;85.94
43420;BME280;29017;51.514;-0.178;2022-09-03T07:24:15;100399.75;;;20.41;85.51
43420;BME280;29017;51.514;-0.178;2022-09-03T07:26:42;100393.94;;;20.44;85.61
43420;BME280;29017;51.514;-0.178;2022-09-03T07:29:14;100407.91;;;20.46;85.45
43420;BME280;29017;51.514;-0.178;2022-09-03T07:31:46;100399.66;;;20.48;85.22
43420;BME280;29017;51.514;-0.178;2022-09-03T07:34:17;100406.16;;;20.52;85.17
43420;BME280;29017;51.514;-0.178;2022-09-03T07:36:46;100403.88;;;20.56;85.34
43420;BME280;29017;51.514;-0.178;2022-09-03T07:39:16;100406.28;;;20.57;84.57
43420;BME280;29017;51.514;-0.178;2022-09-03T07:41:45;100406.28;;;20.57;84.09
43420;BME280;29017;51.514;-0.178;2022-09-03T07:44:14;100403.41;;;20.59;83.68
43420;BME280;29017;51.514;-0.178;2022-09-03T07:46:41;100403.31;;;20.65;83.06
43420;BME280;29017;51.514;-0.178;2022-09-03T07:49:11;100410.84;;;20.68;82.96
43420;BME280;29017;51.514;-0.178;2022-09-03T07:51:38;100414.13;;;20.70;82.84
43420;BME280;29017;51.514;-0.178;2022-09-03T07:54:07;100415.75;;;20.71;82.19
43420;BME280;29017;51.514;-0.178;2022-09-03T07:56:36;100414.25;;;20.75;81.83
43420;BME280;29017;51.514;-0.178;2022-09-03T07:59:04;100419.13;;;20.78;81.44
43420;BME280;29017;51.514;-0.178;2022-09-03T08:01:32;100414.97;;;20.82;82.01
43420;BME280;29017;51.514;-0.178;2022-09-03T08:04:00;100422.88;;;20.89;82.26
43420;BME280;29017;51.514;-0.178;2022-09-03T08:06:29;100426.97;;;20.91;81.70
43420;BME280;29017;51.514;-0.178;2022-09-03T08:08:58;100432.88;;;20.93;81.19
43420;BME280;29017;51.514;-0.178;2022-09-03T08:11:34;100418.47;;;20.95;80.37
43420;BME280;29017;51.514;-0.178;2022-09-03T08:14:07;100427.09;;;20.97;80.19
43420;BME280;29017;51.514;-0.178;2022-09-03T08:16:36;100429.50;;;20.98;79.11
43420;BME280;29017;51.514;-0.178;2022-09-03T08:19:03;100436.50;;;20.99;78.84
43420;BME280;29017;51.514;-0.178;2022-09-03T08:21:31;100436.06;;;21.02;78.84
43420;BME280;29017;51.514;-0.178;2022-09-03T08:23:57;100440.72;;;21.07;78.20
43420;BME280;29017;51.514;-0.178;2022-09-03T08:26:34;100439.44;;;21.09;77.28
43420;BME280;29017;51.514;-0.178;2022-09-03T08:29:02;100444.34;;;21.12;76.70
43420;BME280;29017;51.514;-0.178;2022-09-03T08:31:30;100447.16;;;21.17;76.43
43420;BME280;29017;51.514;-0.178;2022-09-03T08:33:59;100446.47;;;21.22;76.62
43420;BME280;29017;51.514;-0.178;2022-09-03T08:36:34;100442.28;;;21.26;76.46
43420;BME280;29017;51.514;-0.178;2022-09-03T08:39:07;100444.25;;;21.30;77.32
43420;BME280;29017;51.514;-0.178;2022-09-03T08:47:11;100444.59;;;21.46;75.82
43420;BME280;29017;51.514;-0.178;2022-09-03T08:55:16;100452.63;;;21.57;75.60
43420;BME280;29017;51.514;-0.178;2022-09-03T08:57:48;100457.28;;;21.62;76.84
43420;BME280;29017;51.514;-0.178;2022-09-03T09:00:17;100461.59;;;21.63;76.06
43420;BME280;29017;51.514;-0.178;2022-09-03T09:05:29;100462.53;;;21.68;75.27
43420;BME280;29017;51.514;-0.178;2022-09-03T09:08:13;100462.88;;;21.72;75.23
43420;BME280;29017;51.514;-0.178;2022-09-03T09:10:46;100457.28;;;21.73;75.92
43420;BME280;29017;51.514;-0.178;2022-09-03T09:13:33;100459.69;;;21.75;74.97
43420;BME280;29017;51.514;-0.178;2022-09-03T09:16:10;100445.03;;;21.77;74.37
43420;BME280;29017;51.514;-0.178;2022-09-03T09:19:00;100448.06;;;21.81;74.57
43420;BME280;29017;51.514;-0.178;2022-09-03T09:21:36;100448.97;;;21.87;74.56
43420;BME280;29017;51.514;-0.178;2022-09-03T09:24:24;100449.69;;;21.94;74.68
43420;BME280;29017;51.514;-0.178;2022-09-03T09:26:57;100457.38;;;22.02;74.36
43420;BME280;29017;51.514;-0.178;2022-09-03T09:29:27;100453.75;;;22.08;74.07
43420;BME280;29017;51.514;-0.178;2022-09-03T09:31:55;100455.47;;;22.14;73.96
43420;BME280;29017;51.514;-0.178;2022-09-03T09:34:22;100450.78;;;22.21;72.79
43420;BME280;29017;51.514;-0.178;2022-09-03T09:36:51;100453.66;;;22.31;73.72
43420;BME280;29017;51.514;-0.178;2022-09-03T09:39:19;100459.47;;;22.40;72.81
43420;BME280;29017;51.514;-0.178;2022-09-03T09:42:00;100461.75;;;22.48;72.50
43420;BME280;29017;51.514;-0.178;2022-09-03T09:44:39;100455.34;;;22.49;71.81
43420;BME280;29017;51.514;-0.178;2022-09-03T09:47:09;100463.13;;;22.50;71.37
43420;BME280;29017;51.514;-0.178;2022-09-03T09:49:51;100458.94;;;22.54;71.42
43420;BME280;29017;51.514;-0.178;2022-09-03T09:52:19;100458.75;;;22.61;71.72
43420;BME280;29017;51.514;-0.178;2022-09-03T09:54:52;100449.53;;;22.69;72.07
43420;BME280;29017;51.514;-0.178;2022-09-03T09:57:23;100456.66;;;22.75;72.10
43420;BME280;29017;51.514;-0.178;2022-09-03T10:00:09;100452.41;;;22.79;71.31
43420;BME280;29017;51.514;-0.178;2022-09-03T10:02:40;100462.91;;;22.80;71.00
43420;BME280;29017;51.514;-0.178;2022-09-03T10:05:26;100456.81;;;22.85;71.25
43420;BME280;29017;51.514;-0.178;2022-09-03T10:07:58;100458.41;;;22.86;71.04
43420;BME280;29017;51.514;-0.178;2022-09-03T10:10:27;100465.34;;;22.82;70.90
43420;BME280;29017;51.514;-0.178;2022-09-03T10:13:08;100462.09;;;22.80;70.86
43420;BME280;29017;51.514;-0.178;2022-09-03T10:16:02;100464.19;;;22.78;71.21
43420;BME280;29017;51.514;-0.178;2022-09-03T10:26:55;100454.06;;;22.68;71.87
43420;BME280;29017;51.514;-0.178;2022-09-03T10:29:42;100444.97;;;22.69;71.56
43420;BME280;29017;51.514;-0.178;2022-09-03T10:32:37;100450.34;;;22.69;71.71
43420;BME280;29017;51.514;-0.178;2022-09-03T10:35:26;100448.81;;;22.73;70.69
43420;BME280;29017;51.514;-0.178;2022-09-03T10:38:15;100449.16;;;22.77;70.14
43420;BME280;29017;51.514;-0.178;2022-09-03T10:40:58;100451.69;;;22.83;69.38
43420;BME280;29017;51.514;-0.178;2022-09-03T10:52:24;100454.69;;;22.87;69.12
43420;BME280;29017;51.514;-0.178;2022-09-03T11:00:23;100455.91;;;22.96;69.12
43420;BME280;29017;51.514;-0.178;2022-09-03T11:03:15;100460.31;;;23.02;70.00
43420;BME280;29017;51.514;-0.178;2022-09-03T11:06:08;100449.66;;;23.07;68.47
43420;BME280;29017;51.514;-0.178;2022-09-03T11:11:14;100449.34;;;23.20;67.35
43420;BME280;29017;51.514;-0.178;2022-09-03T11:13:49;100450.47;;;23.24;66.44
43420;BME280;29017;51.514;-0.178;2022-09-03T11:16:20;100454.88;;;23.30;66.38
43420;BME280;29017;51.514;-0.178;2022-09-03T11:18:59;100449.88;;;23.39;66.70
43420;BME280;29017;51.514;-0.178;2022-09-03T11:21:29;100449.16;;;23.43;66.46
43420;BME280;29017;51.514;-0.178;2022-09-03T11:24:08;100456.25;;;23.50;66.17
43420;BME280;29017;51.514;-0.178;2022-09-03T11:26:42;100451.78;;;23.55;65.79
43420;BME280;29017;51.514;-0.178;2022-09-03T11:29:21;100441.34;;;23.59;65.66
43420;BME280;29017;51.514;-0.178;2022-09-03T11:32:17;100447.75;;;23.58;65.59
43420;BME280;29017;51.514;-0.178;2022-09-03T11:34:52;100447.75;;;23.58;65.47
43420;BME280;29017;51.514;-0.178;2022-09-03T11:37:25;100434.09;;;23.59;65.12
43420;BME280;29017;51.514;-0.178;2022-09-03T11:42:38;100434.53;;;23.51;64.23
43420;BME280;29017;51.514;-0.178;2022-09-03T11:47:52;100436.94;;;23.53;65.10
43420;BME280;29017;51.514;-0.178;2022-09-03T11:50:25;100437.53;;;23.55;65.13
43420;BME280;29017;51.514;-0.178;2022-09-03T11:53:22;100438.88;;;23.57;64.98
43420;BME280;29017;51.514;-0.178;2022-09-03T11:55:53;100431.91;;;23.56;65.21
43420;BME280;29017;51.514;-0.178;2022-09-03T11:58:31;100423.59;;;23.58;65.33
43420;BME280;29017;51.514;-0.178;2022-09-03T12:01:02;100422.53;;;23.59;65.65
43420;BME280;29017;51.514;-0.178;2022-09-03T12:03:46;100427.66;;;23.60;65.64
43420;BME280;29017;51.514;-0.178;2022-09-03T12:23:49;100433.00;;;23.77;63.17
43420;BME280;29017;51.514;-0.178;2022-09-03T12:26:25;100432.41;;;23.75;62.60
43420;BME280;29017;51.514;-0.178;2022-09-03T12:28:57;100433.00;;;23.77;63.07
43420;BME280;29017;51.514;-0.178;2022-09-03T12:31:28;100432.47;;;23.80;63.33
43420;BME280;29017;51.514;-0.178;2022-09-03T12:36:41;100432.78;;;23.83;64.20
43420;BME280;29017;51.514;-0.178;2022-09-03T12:39:22;100440.84;;;23.83;64.32
43420;BME280;29017;51.514;-0.178;2022-09-03T12:42:17;100441.13;;;23.82;63.37
43420;BME280;29017;51.514;-0.178;2022-09-03T12:44:46;100445.94;;;23.80;63.77
43420;BME280;29017;51.514;-0.178;2022-09-03T12:47:15;100449.44;;;23.80;63.62
43420;BME280;29017;51.514;-0.178;2022-09-03T12:50:14;100451.53;;;23.78;63.57
43420;BME280;29017;51.514;-0.178;2022-09-03T12:52:57;100446.44;;;23.77;63.78
43420;BME280;29017;51.514;-0.178;2022-09-03T12:55:38;100449.66;;;23.79;64.38
43420;BME280;29017;51.514;-0.178;2022-09-03T13:00:52;100465.31;;;23.82;64.55
43420;BME280;29017;51.514;-0.178;2022-09-03T13:03:32;100471.75;;;23.81;66.44
43420;BME280;29017;51.514;-0.178;2022-09-03T13:06:09;100477.88;;;23.76;67.95
43420;BME280;29017;51.514;-0.178;2022-09-03T13:11:21;100475.38;;;23.53;69.92
43420;BME280;29017;51.514;-0.178;2022-09-03T13:13:54;100479.31;;;23.46;70.55
43420;BME280;29017;51.514;-0.178;2022-09-03T13:19:11;100472.63;;;23.31;71.40
43420;BME280;29017;51.514;-0.178;2022-09-03T13:30:04;100475.84;;;23.33;72.24
43420;BME280;29017;51.514;-0.178;2022-09-03T13:35:37;100471.31;;;23.34;72.34
43420;BME280;29017;51.514;-0.178;2022-09-03T13:40:41;100471.13;;;23.40;72.99
43420;BME280;29017;51.514;-0.178;2022-09-03T13:43:32;100471.25;;;23.46;73.02
43420;BME280;29017;51.514;-0.178;2022-09-03T13:46:06;100465.94;;;23.51;72.70
43420;BME280;29017;51.514;-0.178;2022-09-03T13:48:44;100459.00;;;23.55;72.34
43420;BME280;29017;51.514;-0.178;2022-09-03T13:51:38;100463.06;;;23.57;71.16
43420;BME280;29017;51.514;-0.178;2022-09-03T13:54:29;100466.56;;;23.58;71.04
43420;BME280;29017;51.514;-0.178;2022-09-03T13:59:55;100465.81;;;23.62;70.17
43420;BME280;29017;51.514;-0.178;2022-09-03T14:05:00;100471.91;;;23.74;67.60
43420;BME280;29017;51.514;-0.178;2022-09-03T14:13:12;100469.13;;;23.86;68.04
43420;BME280;29017;51.514;-0.178;2022-09-03T14:16:16;100472.94;;;23.90;68.67
43420;BME280;29017;51.514;-0.178;2022-09-03T14:18:57;100475.63;;;23.90;67.11
43420;BME280;29017;51.514;-0.178;2022-09-03T14:21:29;100470.81;;;23.92;68.24
43420;BME280;29017;51.514;-0.178;2022-09-03T14:24:09;100471.38;;;23.94;67.19
43420;BME280;29017;51.514;-0.178;2022-09-03T14:26:49;100475.69;;;23.95;67.69
43420;BME280;29017;51.514;-0.178;2022-09-03T14:29:22;100471.38;;;23.94;67.35
43420;BME280;29017;51.514;-0.178;2022-09-03T14:37:22;100471.13;;;23.96;65.22
43420;BME280;29017;51.514;-0.178;2022-09-03T14:39:55;100473.63;;;24.02;65.64
43420;BME280;29017;51.514;-0.178;2022-09-03T14:58:11;100471.38;;;24.16;62.25
43420;BME280;29017;51.514;-0.178;2022-09-03T15:00:57;100471.38;;;24.16;62.57
43420;BME280;29017;51.514;-0.178;2022-09-03T15:12:04;100472.69;;;24.13;63.11
43420;BME280;29017;51.514;-0.178;2022-09-03T15:14:52;100480.75;;;24.13;62.33
43420;BME280;29017;51.514;-0.178;2022-09-03T15:26:19;100485.75;;;24.05;61.95
43420;BME280;29017;51.514;-0.178;2022-09-03T15:29:08;100490.84;;;24.01;62.08
43420;BME280;29017;51.514;-0.178;2022-09-03T15:36:46;100488.16;;;24.01;61.93
43420;BME280;29017;51.514;-0.178;2022-09-03T15:39:24;100497.84;;;24.02;61.81
43420;BME280;29017;51.514;-0.178;2022-09-03T15:41:56;100497.25;;;24.00;61.79
43420;BME280;29017;51.514;-0.178;2022-09-03T15:44:26;100500.19;;;23.99;62.59
43420;BME280;29017;51.514;-0.178;2022-09-03T15:47:04;100499.94;;;24.00;62.56
43420;BME280;29017;51.514;-0.178;2022-09-03T15:50:02;100509.31;;;23.98;62.47
43420;BME280;29017;51.514;-0.178;2022-09-03T15:55:37;100519.28;;;23.97;63.07
43420;BME280;29017;51.514;-0.178;2022-09-03T16:00:56;100515.25;;;24.00;65.96
43420;BME280;29017;51.514;-0.178;2022-09-03T16:03:40;100511.53;;;24.01;65.08
43420;BME280;29017;51.514;-0.178;2022-09-03T16:06:43;100508.78;;;23.96;64.27
43420;BME280;29017;51.514;-0.178;2022-09-03T16:09:35;100511.38;;;23.91;64.68
43420;BME280;29017;51.514;-0.178;2022-09-03T16:16:09;100525.56;;;23.86;66.04
43420;BME280;29017;51.514;-0.178;2022-09-03T16:19:35;100532.00;;;23.85;64.49
43420;BME280;29017;51.514;-0.178;2022-09-03T16:21:59;100534.63;;;23.80;64.16
43420;BME280;29017;51.514;-0.178;2022-09-03T16:27:59;100533.72;;;23.74;64.42
43420;BME280;29017;51.514;-0.178;2022-09-03T17:00:06;100566.97;;;23.52;65.58
43420;BME280;29017;51.514;-0.178;2022-09-03T17:06:20;100563.41;;;23.46;66.40
43420;BME280;29017;51.514;-0.178;2022-09-03T17:12:02;100563.19;;;23.36;65.94